Time;durP1;ratioP1;P1;durP2;ratioP2;P2;SDS_P1;SDS_P2;PMS_P1;PMS_P2;Temp;Humidity;BMP_temperature;BMP_pressure;BME280_temperature;BME280_humidity;BME280_pressure;Samples;Min_cycle;Max_cycle;Signal;HPM_P1;HPM_P2
2023/08/03 00:01:19;;;;;;;;;;;;;;;16.68;100.00;98817.78;10460545;28;19936;-70
2023/08/03 00:06:21;;;;;;;;;;;;;;;16.73;100.00;98828.63;10461662;28;19925;-69
2023/08/03 00:11:23;;;;;;;;;;;;;;;16.41;100.00;98837.56;10461225;28;20350;-68
2023/08/03 00:16:25;;;;;;;;;;;;;;;16.53;100.00;98833.53;10461232;28;19925;-69
2023/08/03 00:21:28;;;;;;;;;;;;;;;16.49;100.00;98830.44;10443112;28;19925;-69
2023/08/03 00:26:30;;;;;;;;;;;;;;;16.45;100.00;98839.69;10460915;28;19931;-69
2023/08/03 00:31:32;;;;;;;;;;;;;;;16.53;100.00;98847.56;10460481;28;20368;-69
2023/08/03 00:36:34;;;;;;;;;;;;;;;16.64;100.00;98850.81;10460092;28;19971;-69
2023/08/03 00:41:37;;;;;;;;;;;;;;;16.69;100.00;98851.94;10426319;28;19925;-69
2023/08/03 00:46:39;;;;;;;;;;;;;;;16.58;100.00;98864.72;10442286;28;19925;-69
2023/08/03 00:51:41;;;;;;;;;;;;;;;16.59;100.00;98874.28;10459843;28;19924;-68
2023/08/03 00:56:44;;;;;;;;;;;;;;;16.46;100.00;98888.88;10441777;28;19929;-68
2023/08/03 01:01:46;;;;;;;;;;;;;;;16.60;100.00;98907.63;10459250;28;19925;-69
2023/08/03 01:06:48;;;;;;;;;;;;;;;16.71;100.00;98916.00;10459183;28;19932;-69
2023/08/03 01:11:50;;;;;;;;;;;;;;;16.61;100.00;98923.31;10458868;28;19925;-69
2023/08/03 01:16:53;;;;;;;;;;;;;;;16.60;100.00;98924.31;10458595;28;19925;-69
2023/08/03 01:21:55;;;;;;;;;;;;;;;16.64;100.00;98930.06;10440809;28;20441;-69
2023/08/03 01:26:58;;;;;;;;;;;;;;;16.52;100.00;98942.84;10440925;28;19928;-69
2023/08/03 01:32:01;;;;;;;;;;;;;;;16.81;100.00;98955.44;10458125;28;20287;-69
2023/08/03 01:37:03;;;;;;;;;;;;;;;16.66;100.00;98962.41;10457973;28;19931;-69
2023/08/03 01:42:05;;;;;;;;;;;;;;;16.71;100.00;98984.69;10440103;28;20291;-69
2023/08/03 01:47:09;;;;;;;;;;;;;;;16.73;100.00;98971.31;10457611;28;20257;-69
2023/08/03 01:52:12;;;;;;;;;;;;;;;16.83;100.00;98985.16;10457929;28;19924;-69
2023/08/03 01:57:15;;;;;;;;;;;;;;;16.74;100.00;98999.38;10456701;28;19929;-69
2023/08/03 02:02:17;;;;;;;;;;;;;;;16.65;100.00;99003.88;10457217;28;19931;-69
2023/08/03 02:07:39;;;;;;;;;;;;;;;16.71;100.00;99013.78;10422939;28;20371;-69
2023/08/03 02:12:41;;;;;;;;;;;;;;;16.82;100.00;99009.91;10456887;28;20283;-69
2023/08/03 02:17:43;;;;;;;;;;;;;;;16.83;100.00;99008.94;10456923;28;20019;-69
2023/08/03 02:22:47;;;;;;;;;;;;;;;16.81;100.00;99023.28;10439020;28;19931;-69
2023/08/03 02:27:50;;;;;;;;;;;;;;;16.81;100.00;99018.84;10456882;28;19924;-69
2023/08/03 02:32:52;;;;;;;;;;;;;;;16.95;100.00;99013.88;10456574;28;19925;-69
2023/08/03 02:37:54;;;;;;;;;;;;;;;16.94;100.00;99015.66;10456627;28;19932;-69
2023/08/03 02:42:57;;;;;;;;;;;;;;;17.09;100.00;99010.47;10456368;28;20405;-69
2023/08/03 02:47:59;;;;;;;;;;;;;;;17.00;100.00;99027.41;10456114;28;20015;-69
2023/08/03 02:53:01;;;;;;;;;;;;;;;16.76;100.00;99020.34;10456215;28;19953;-69
2023/08/03 02:58:03;;;;;;;;;;;;;;;16.81;100.00;99034.72;10455775;28;19925;-69
2023/08/03 03:03:06;;;;;;;;;;;;;;;16.60;100.00;99037.09;10456093;28;19925;-69
2023/08/03 03:08:08;;;;;;;;;;;;;;;16.79;100.00;99031.38;10455955;28;20015;-69
2023/08/03 03:13:10;;;;;;;;;;;;;;;16.62;100.00;99035.91;10462832;28;19924;-69
2023/08/03 03:18:13;;;;;;;;;;;;;;;16.71;100.00;99045.47;10463576;28;19932;-69
2023/08/03 03:23:15;;;;;;;;;;;;;;;16.71;100.00;99040.19;10463255;28;20419;-69
2023/08/03 03:28:17;;;;;;;;;;;;;;;16.62;100.00;99025.34;10463015;28;20386;-70
2023/08/03 03:33:19;;;;;;;;;;;;;;;16.69;100.00;99036.91;10462705;28;20364;-69
2023/08/03 03:38:22;;;;;;;;;;;;;;;16.46;100.00;99052.66;10462631;28;19925;-70
2023/08/03 03:43:24;;;;;;;;;;;;;;;16.44;100.00;99056.44;10462335;28;20406;-69
2023/08/03 03:48:26;;;;;;;;;;;;;;;16.47;100.00;99038.44;10444510;28;20310;-70
2023/08/03 03:53:28;;;;;;;;;;;;;;;16.58;100.00;99057.59;10462145;28;19932;-69
2023/08/03 03:58:31;;;;;;;;;;;;;;;16.61;100.00;99073.06;10461599;28;19925;-69
2023/08/03 04:03:33;;;;;;;;;;;;;;;16.38;100.00;99080.91;10443979;28;19925;-69
2023/08/03 04:08:35;;;;;;;;;;;;;;;16.39;100.00;99083.38;10461539;28;20011;-69
2023/08/03 04:13:37;;;;;;;;;;;;;;;16.33;100.00;99089.31;10461117;28;20279;-69
2023/08/03 04:18:40;;;;;;;;;;;;;;;16.56;100.00;99094.72;10443586;28;19931;-69
2023/08/03 04:23:42;;;;;;;;;;;;;;;16.35;100.00;99111.91;10460444;28;20407;-69
2023/08/03 04:28:44;;;;;;;;;;;;;;;16.65;100.00;99104.28;10460861;28;19929;-69
2023/08/03 04:33:46;;;;;;;;;;;;;;;16.62;100.00;99125.75;10460373;28;19925;-70
2023/08/03 04:38:49;;;;;;;;;;;;;;;16.38;100.00;99142.47;10460193;28;19932;-69
2023/08/03 04:43:51;;;;;;;;;;;;;;;16.51;100.00;99147.25;10460011;28;20323;-70
2023/08/03 04:48:53;;;;;;;;;;;;;;;16.45;100.00;99139.97;10459813;28;19925;-68
2023/08/03 04:53:55;;;;;;;;;;;;;;;16.39;100.00;99167.03;10459770;28;19925;-69
2023/08/03 04:58:58;;;;;;;;;;;;;;;16.57;100.00;99165.06;10459339;28;19925;-69
2023/08/03 05:04:00;;;;;;;;;;;;;;;16.58;100.00;99164.06;10459426;28;19924;-69
2023/08/03 05:09:03;;;;;;;;;;;;;;;16.38;100.00;99168.06;10459043;28;20417;-70
2023/08/03 05:14:05;;;;;;;;;;;;;;;16.48;100.00;99184.56;10458745;28;19929;-69
2023/08/03 05:19:07;;;;;;;;;;;;;;;16.63;100.00;99187.34;10458811;28;19931;-70
2023/08/03 05:24:09;;;;;;;;;;;;;;;16.84;100.00;99186.81;10458498;28;19929;-70
2023/08/03 05:29:12;;;;;;;;;;;;;;;16.66;100.00;99189.66;10458261;28;19925;-70
2023/08/03 05:34:14;;;;;;;;;;;;;;;16.41;100.00;99202.88;10457350;28;19924;-70
2023/08/03 05:39:16;;;;;;;;;;;;;;;16.47;100.00;99215.41;10457977;28;19925;-70
2023/08/03 05:44:19;;;;;;;;;;;;;;;16.68;100.00;99212.28;10457704;28;20366;-70
2023/08/03 05:49:23;;;;;;;;;;;;;;;16.80;100.00;99227.81;10457621;28;19932;-70
2023/08/03 05:54:26;;;;;;;;;;;;;;;16.65;100.00;99232.94;10457475;28;19924;-70
2023/08/03 05:59:28;;;;;;;;;;;;;;;16.55;100.00;99256.06;10456955;28;20394;-69
2023/08/03 06:04:30;;;;;;;;;;;;;;;16.60;100.00;99253.75;10439744;28;19931;-70
2023/08/03 06:09:33;;;;;;;;;;;;;;;16.72;100.00;99261.16;10456983;28;20291;-70
2023/08/03 06:14:35;;;;;;;;;;;;;;;16.70;100.00;99265.78;10459967;23;19936;-68
2023/08/03 06:19:38;;;;;;;;;;;;;;;16.65;100.00;99267.28;10456825;28;20397;-67
2023/08/03 06:24:40;;;;;;;;;;;;;;;16.79;100.00;99279.00;10456733;28;19924;-68
2023/08/03 06:29:42;;;;;;;;;;;;;;;16.89;100.00;99284.97;10456932;28;19925;-67
2023/08/03 06:34:45;;;;;;;;;;;;;;;16.80;100.00;99289.41;10456694;28;19924;-67
2023/08/03 06:39:50;;;;;;;;;;;;;;;16.72;100.00;99310.53;10456389;28;20367;-67
2023/08/03 06:44:52;;;;;;;;;;;;;;;17.01;100.00;99306.63;10460351;28;20004;-67
2023/08/03 06:49:54;;;;;;;;;;;;;;;16.66;100.00;99319.13;10464669;28;19924;-67
2023/08/03 06:54:57;;;;;;;;;;;;;;;16.94;100.00;99324.94;10464482;28;19929;-67
2023/08/03 06:59:59;;;;;;;;;;;;;;;16.54;100.00;99339.75;10464196;28;20401;-67
2023/08/03 07:05:01;;;;;;;;;;;;;;;16.53;100.00;99353.97;10463975;28;19928;-68
2023/08/03 07:10:04;;;;;;;;;;;;;;;16.85;100.00;99357.69;10463776;28;19925;-67
2023/08/03 07:15:06;;;;;;;;;;;;;;;16.93;100.00;99362.13;10463453;28;20011;-68
2023/08/03 07:20:09;;;;;;;;;;;;;;;17.01;100.00;99364.78;10463406;28;19946;-67
2023/08/03 07:25:11;;;;;;;;;;;;;;;16.79;100.00;99372.31;10462027;28;20272;-68
2023/08/03 07:30:13;;;;;;;;;;;;;;;16.90;100.00;99358.81;10463282;28;20012;-67
2023/08/03 07:35:16;;;;;;;;;;;;;;;16.88;100.00;99381.97;10462833;28;19935;-68
2023/08/03 07:40:18;;;;;;;;;;;;;;;16.77;100.00;99370.84;10462586;28;19925;-67
2023/08/03 07:45:20;;;;;;;;;;;;;;;16.98;100.00;99380.97;10462425;28;20287;-68
2023/08/03 07:50:26;;;;;;;;;;;;;;;16.86;100.00;99381.31;10461094;28;19951;-67
2023/08/03 07:55:28;;;;;;;;;;;;;;;16.80;100.00;99389.03;10461429;28;19931;-68
2023/08/03 08:00:30;;;;;;;;;;;;;;;16.65;100.00;99397.56;10460620;28;20288;-67
2023/08/03 08:05:33;;;;;;;;;;;;;;;16.93;100.00;99412.34;10461747;28;20011;-67
2023/08/03 08:10:35;;;;;;;;;;;;;;;16.90;100.00;99418.81;10461532;28;20283;-67
2023/08/03 08:15:38;;;;;;;;;;;;;;;17.00;100.00;99416.03;10461091;28;20429;-67
2023/08/03 08:20:41;;;;;;;;;;;;;;;17.15;100.00;99418.84;10461317;28;19932;-67
2023/08/03 08:25:43;;;;;;;;;;;;;;;16.83;100.00;99441.56;10460951;28;19928;-66
2023/08/03 08:30:45;;;;;;;;;;;;;;;16.89;100.00;99440.94;10460719;28;20331;-67
2023/08/03 08:35:48;;;;;;;;;;;;;;;16.97;100.00;99454.19;10459326;28;19925;-68
2023/08/03 08:40:51;;;;;;;;;;;;;;;17.10;100.00;99453.72;10442601;28;20372;-68
2023/08/03 08:45:53;;;;;;;;;;;;;;;17.10;100.00;99474.88;10458911;28;19931;-67
2023/08/03 08:50:57;;;;;;;;;;;;;;;17.19;100.00;99470.41;10458753;28;19925;-68
2023/08/03 08:56:02;;;;;;;;;;;;;;;17.11;100.00;99489.72;10442659;28;19925;-67
2023/08/03 09:01:07;;;;;;;;;;;;;;;17.13;100.00;99493.06;10459440;28;20014;-67
2023/08/03 09:06:10;;;;;;;;;;;;;;;17.23;100.00;99514.91;10458740;28;20340;-68
2023/08/03 09:11:15;;;;;;;;;;;;;;;17.23;100.00;99524.63;10458474;28;19925;-68
2023/08/03 09:16:21;;;;;;;;;;;;;;;17.41;100.00;99543.84;10458890;28;20368;-68
2023/08/03 09:21:24;;;;;;;;;;;;;;;17.14;100.00;99560.81;10458061;28;19948;-67
2023/08/03 09:26:29;;;;;;;;;;;;;;;17.48;100.00;99585.53;10458544;28;19924;-67
2023/08/03 09:31:34;;;;;;;;;;;;;;;17.79;100.00;99593.69;10458477;28;20314;-68
2023/08/03 09:36:38;;;;;;;;;;;;;;;17.85;100.00;99602.78;10458145;28;19929;-68
2023/08/03 09:41:41;;;;;;;;;;;;;;;17.91;100.00;99605.63;10456724;28;19931;-67
2023/08/03 09:46:46;;;;;;;;;;;;;;;18.91;100.00;99609.81;10456691;28;19929;-67
2023/08/03 09:51:51;;;;;;;;;;;;;;;19.16;100.00;99613.22;10456455;28;20426;-67
2023/08/03 09:56:59;;;;;;;;;;;;;;;18.61;100.00;99630.78;10457664;28;19929;-67
2023/08/03 10:02:06;;;;;;;;;;;;;;;19.39;100.00;99641.66;10456272;28;19961;-66
2023/08/03 10:07:08;;;;;;;;;;;;;;;20.35;100.00;99644.84;10455976;28;19924;-67
2023/08/03 10:12:18;;;;;;;;;;;;;;;20.39;100.00;99648.78;10455668;28;20012;-67
2023/08/03 10:17:20;;;;;;;;;;;;;;;20.56;100.00;99660.06;10439257;28;19925;-68
2023/08/03 10:22:23;;;;;;;;;;;;;;;20.02;100.00;99679.63;10455452;28;19925;-68
2023/08/03 10:27:25;;;;;;;;;;;;;;;19.96;100.00;99693.63;10456927;28;20015;-68
2023/08/03 10:32:28;;;;;;;;;;;;;;;22.26;100.00;99683.94;10456690;28;19929;-68
2023/08/03 10:37:30;;;;;;;;;;;;;;;21.58;100.00;99685.28;10455327;28;19972;-68
2023/08/03 10:42:33;;;;;;;;;;;;;;;22.97;100.00;99695.59;10455282;28;19931;-67
2023/08/03 10:47:35;;;;;;;;;;;;;;;22.20;100.00;99691.88;10455173;28;20409;-68
2023/08/03 10:52:38;;;;;;;;;;;;;;;24.09;100.00;99699.81;10456472;28;20009;-68
2023/08/03 10:57:42;;;;;;;;;;;;;;;23.22;97.92;99677.28;10456002;28;20426;-68
2023/08/03 11:02:44;;;;;;;;;;;;;;;22.82;95.50;99685.03;10456268;28;19932;-68
2023/08/03 11:07:47;;;;;;;;;;;;;;;22.07;100.00;99700.56;10455856;28;19929;-66
2023/08/03 11:12:52;;;;;;;;;;;;;;;21.43;100.00;99699.41;10455571;28;19925;-68
2023/08/03 11:17:54;;;;;;;;;;;;;;;21.25;100.00;99755.72;10454652;28;19931;-68
2023/08/03 11:22:57;;;;;;;;;;;;;;;19.03;100.00;99835.75;10455536;28;19982;-68
2023/08/03 11:27:59;;;;;;;;;;;;;;;18.57;100.00;99826.41;10455672;28;19925;-70
2023/08/03 11:33:01;;;;;;;;;;;;;;;18.30;100.00;99848.72;10460614;28;19925;-69
2023/08/03 11:38:07;;;;;;;;;;;;;;;17.90;100.00;99844.91;10462902;28;19925;-68
2023/08/03 11:43:09;;;;;;;;;;;;;;;17.62;100.00;99826.56;10461725;28;19925;-68
2023/08/03 11:48:11;;;;;;;;;;;;;;;17.79;100.00;99837.25;10461233;28;19925;-68
2023/08/03 11:53:23;;;;;;;;;;;;;;;17.80;100.00;99847.69;10462152;28;19994;-68
2023/08/03 11:58:25;;;;;;;;;;;;;;;17.80;100.00;99866.22;10460905;28;19979;-68
2023/08/03 12:03:34;;;;;;;;;;;;;;;17.79;100.00;99885.72;10461762;28;20394;-68
2023/08/03 12:08:43;;;;;;;;;;;;;;;18.08;100.00;99912.88;10460508;28;19972;-69
2023/08/03 12:13:46;;;;;;;;;;;;;;;17.93;100.00;99910.81;10460295;28;19932;-70
2023/08/03 12:18:48;;;;;;;;;;;;;;;18.16;100.00;99926.16;10461193;28;19931;-70
2023/08/03 12:23:51;;;;;;;;;;;;;;;18.16;100.00;99926.16;10461111;28;19925;-69
2023/08/03 12:28:54;;;;;;;;;;;;;;;17.79;100.00;99964.31;10461023;28;19931;-69
2023/08/03 12:34:08;;;;;;;;;;;;;;;18.01;100.00;99973.59;10460566;28;20007;-69
2023/08/03 12:39:10;;;;;;;;;;;;;;;18.49;100.00;99979.28;10460513;28;19971;-69
2023/08/03 12:44:13;;;;;;;;;;;;;;;19.41;100.00;99985.50;10459996;28;19925;-69
2023/08/03 12:49:17;;;;;;;;;;;;;;;18.81;100.00;99975.09;10460206;28;19925;-68
2023/08/03 12:54:19;;;;;;;;;;;;;;;18.46;100.00;99991.06;10459758;28;20304;-68
2023/08/03 12:59:22;;;;;;;;;;;;;;;18.19;100.00;100027.34;10459778;28;19925;-68
2023/08/03 13:04:24;;;;;;;;;;;;;;;18.80;100.00;100037.09;10458435;28;19925;-68
2023/08/03 13:09:26;;;;;;;;;;;;;;;19.12;100.00;100015.97;10459201;28;19924;-68
2023/08/03 13:14:29;;;;;;;;;;;;;;;19.04;100.00;100039.84;10458907;28;19925;-68
2023/08/03 13:19:31;;;;;;;;;;;;;;;18.73;100.00;100044.84;10458918;28;20342;-68
2023/08/03 13:24:34;;;;;;;;;;;;;;;18.52;100.00;100083.16;10458591;28;19925;-68
2023/08/03 13:29:36;;;;;;;;;;;;;;;17.83;100.00;100101.53;10458569;28;19925;-68
2023/08/03 13:34:38;;;;;;;;;;;;;;;17.26;100.00;100116.81;10458139;28;19925;-69
2023/08/03 13:39:40;;;;;;;;;;;;;;;17.26;100.00;100135.34;10458179;28;19925;-68
2023/08/03 13:44:43;;;;;;;;;;;;;;;17.67;100.00;100132.31;10457849;28;20279;-69
2023/08/03 13:49:45;;;;;;;;;;;;;;;18.19;100.00;100138.63;10457975;28;19925;-69
2023/08/03 13:54:47;;;;;;;;;;;;;;;18.60;100.00;100153.16;10456854;28;19936;-69
2023/08/03 13:59:50;;;;;;;;;;;;;;;18.23;100.00;100167.47;10457361;28;20307;-68
2023/08/03 14:04:55;;;;;;;;;;;;;;;17.95;100.00;100186.91;10456156;28;20303;-67
2023/08/03 14:10:01;;;;;;;;;;;;;;;18.17;100.00;100182.97;10457096;28;19925;-69
2023/08/03 14:15:06;;;;;;;;;;;;;;;18.49;100.00;100188.69;10457073;28;19925;-68
2023/08/03 14:20:11;;;;;;;;;;;;;;;18.56;100.00;100190.56;10455703;28;19925;-67
2023/08/03 14:25:16;;;;;;;;;;;;;;;18.77;100.00;100202.63;10457182;28;19932;-68
2023/08/03 14:30:21;;;;;;;;;;;;;;;19.65;100.00;100206.88;10455534;28;19925;-67
2023/08/03 14:35:24;;;;;;;;;;;;;;;18.86;100.00;100225.63;10456736;28;19925;-68
2023/08/03 14:40:29;;;;;;;;;;;;;;;18.86;100.00;100225.63;10456552;28;20342;-68
2023/08/03 14:45:31;;;;;;;;;;;;;;;18.62;100.00;100236.00;10456323;28;19925;-68
2023/08/03 14:50:36;;;;;;;;;;;;;;;18.63;100.00;100240.34;10456252;28;19946;-67
2023/08/03 14:55:39;;;;;;;;;;;;;;;18.63;100.00;100261.53;10456269;28;20043;-68
2023/08/03 15:00:44;;;;;;;;;;;;;;;18.47;100.00;100263.03;10456270;28;19931;-68
2023/08/03 15:05:46;;;;;;;;;;;;;;;18.21;100.00;100281.53;10459364;28;19931;-68
2023/08/03 15:10:56;;;;;;;;;;;;;;;18.13;100.00;100289.41;10462713;28;19925;-68
2023/08/03 15:16:07;;;;;;;;;;;;;;;17.67;100.00;100301.72;10462470;28;20002;-68
2023/08/03 15:21:30;;;;;;;;;;;;;;;17.79;100.00;100312.00;10463531;28;20298;-68
2023/08/03 15:26:32;;;;;;;;;;;;;;;17.50;100.00;100317.41;10463204;28;20394;-67
2023/08/03 15:31:37;;;;;;;;;;;;;;;17.56;100.00;100318.63;10461932;28;19940;-68
2023/08/03 15:36:45;;;;;;;;;;;;;;;17.71;100.00;100327.78;10463056;28;19932;-68
2023/08/03 15:41:51;;;;;;;;;;;;;;;17.59;100.00;100331.59;10462691;28;19925;-68
2023/08/03 15:46:55;;;;;;;;;;;;;;;18.25;100.00;100348.31;10461465;28;19971;-68
2023/08/03 15:52:17;;;;;;;;;;;;;;;18.18;100.00;100353.34;10462202;28;19932;-67
2023/08/03 15:57:22;;;;;;;;;;;;;;;18.38;100.00;100369.97;10462061;28;20375;-68
2023/08/03 16:02:25;;;;;;;;;;;;;;;18.34;100.00;100372.09;10460814;28;19925;-68
2023/08/03 16:07:27;;;;;;;;;;;;;;;17.42;100.00;100391.41;10460479;28;20402;-67
2023/08/03 16:12:29;;;;;;;;;;;;;;;17.29;100.00;100404.91;10461223;28;19925;-68
2023/08/03 16:17:32;;;;;;;;;;;;;;;17.21;100.00;100424.13;10459501;28;19925;-67
2023/08/03 16:22:34;;;;;;;;;;;;;;;17.41;100.00;100426.75;10461096;28;20050;-66
2023/08/03 16:27:36;;;;;;;;;;;;;;;17.12;100.00;100440.84;10461053;28;19971;-67
2023/08/03 16:32:38;;;;;;;;;;;;;;;17.18;100.00;100445.59;10460914;28;19925;-68
2023/08/03 16:37:50;;;;;;;;;;;;;;;17.44;100.00;100442.34;10460571;28;19925;-68
2023/08/03 16:42:52;;;;;;;;;;;;;;;17.53;100.00;100438.84;10460339;28;20391;-68
2023/08/03 16:47:55;;;;;;;;;;;;;;;17.29;100.00;100441.94;10458919;28;19951;-68
2023/08/03 16:53:01;;;;;;;;;;;;;;;17.48;100.00;100449.03;10459618;28;20218;-68
2023/08/03 16:58:03;;;;;;;;;;;;;;;17.18;100.00;100457.97;10459839;28;19924;-68
2023/08/03 17:03:05;;;;;;;;;;;;;;;17.26;100.00;100471.31;10459522;28;20332;-68
2023/08/03 17:08:08;;;;;;;;;;;;;;;16.90;100.00;100479.78;10459454;28;19928;-68
2023/08/03 17:13:10;;;;;;;;;;;;;;;16.90;100.00;100478.97;10458887;28;20442;-68
2023/08/03 17:18:12;;;;;;;;;;;;;;;17.26;100.00;100485.41;10457837;28;20002;-68
2023/08/03 17:23:15;;;;;;;;;;;;;;;16.85;100.00;100502.34;10457669;28;19924;-68
2023/08/03 17:28:17;;;;;;;;;;;;;;;16.82;100.00;100516.63;10457613;28;19925;-68
2023/08/03 17:33:19;;;;;;;;;;;;;;;16.51;100.00;100524.59;10458359;28;20402;-68
2023/08/03 17:38:21;;;;;;;;;;;;;;;16.60;100.00;100535.34;10458180;28;19936;-68
2023/08/03 17:43:25;;;;;;;;;;;;;;;16.49;100.00;100550.34;10457955;28;19925;-68
2023/08/03 17:48:28;;;;;;;;;;;;;;;16.45;100.00;100558.66;10457783;28;19929;-68
2023/08/03 17:53:30;;;;;;;;;;;;;;;16.50;100.00;100567.84;10457854;28;19978;-67
2023/08/03 17:58:32;;;;;;;;;;;;;;;16.43;100.00;100579.09;10457573;28;19924;-68
2023/08/03 18:03:34;;;;;;;;;;;;;;;16.42;100.00;100580.88;10457366;28;20283;-68
2023/08/03 18:08:37;;;;;;;;;;;;;;;16.42;100.00;100580.03;10457310;28;19971;-67
2023/08/03 18:13:39;;;;;;;;;;;;;;;16.54;100.00;100586.91;10456850;28;20007;-68
2023/08/03 18:18:45;;;;;;;;;;;;;;;16.37;100.00;100592.81;10456807;28;19931;-68
2023/08/03 18:23:55;;;;;;;;;;;;;;;16.52;100.00;100594.13;10455762;28;20372;-67
2023/08/03 18:28:57;;;;;;;;;;;;;;;16.42;100.00;100599.38;10464707;22;20363;-67
2023/08/03 18:33:59;;;;;;;;;;;;;;;16.22;100.00;100602.88;10455460;28;20307;-67
2023/08/03 18:39:02;;;;;;;;;;;;;;;16.29;100.00;100618.09;10457213;28;19924;-67
2023/08/03 18:44:04;;;;;;;;;;;;;;;16.37;100.00;100627.97;10464996;28;20101;-67
2023/08/03 18:49:06;;;;;;;;;;;;;;;16.15;100.00;100637.75;10447138;28;19925;-67
2023/08/03 18:54:09;;;;;;;;;;;;;;;16.26;100.00;100636.00;10464619;28;20383;-67
2023/08/03 18:59:11;;;;;;;;;;;;;;;16.29;100.00;100643.63;10446832;28;19924;-67
2023/08/03 19:04:13;;;;;;;;;;;;;;;16.30;100.00;100651.44;10464191;28;19925;-67
2023/08/03 19:09:15;;;;;;;;;;;;;;;16.39;100.00;100651.63;10446441;28;19924;-67
2023/08/03 19:14:18;;;;;;;;;;;;;;;16.06;100.00;100659.63;10463810;28;20011;-67
2023/08/03 19:19:20;;;;;;;;;;;;;;;16.18;100.00;100665.69;10463873;28;20020;-67
2023/08/03 19:24:22;;;;;;;;;;;;;;;16.21;100.00;100677.81;10463298;28;19932;-67
2023/08/03 19:29:24;;;;;;;;;;;;;;;16.19;100.00;100682.34;10463050;28;20387;-67
2023/08/03 19:34:29;;;;;;;;;;;;;;;16.22;100.00;100684.75;10428947;28;19931;-67
2023/08/03 19:39:31;;;;;;;;;;;;;;;16.18;100.00;100696.56;10462992;28;20283;-67
2023/08/03 19:44:33;;;;;;;;;;;;;;;16.01;100.00;100704.06;10462820;28;19925;-67
2023/08/03 19:49:36;;;;;;;;;;;;;;;15.87;100.00;100714.88;10462513;28;19924;-67
2023/08/03 19:54:41;;;;;;;;;;;;;;;16.04;100.00;100718.78;10444388;28;19925;-67
2023/08/03 19:59:46;;;;;;;;;;;;;;;15.92;100.00;100733.81;10444821;28;19925;-67
2023/08/03 20:04:54;;;;;;;;;;;;;;;16.02;100.00;100747.13;10461825;28;19932;-67
2023/08/03 20:10:16;;;;;;;;;;;;;;;15.92;100.00;100749.66;10462189;28;19925;-67
2023/08/03 20:15:19;;;;;;;;;;;;;;;16.06;100.00;100759.97;10443915;28;19925;-67
2023/08/03 20:20:21;;;;;;;;;;;;;;;16.21;100.00;100762.34;10461399;28;19925;-67
2023/08/03 20:25:23;;;;;;;;;;;;;;;16.11;100.00;100757.78;10461264;28;19924;-67
2023/08/03 20:30:25;;;;;;;;;;;;;;;16.06;100.00;100759.97;10418511;28;19925;-67
2023/08/03 20:35:28;;;;;;;;;;;;;;;16.20;100.00;100764.13;10418451;28;19925;-67
2023/08/03 20:40:33;;;;;;;;;;;;;;;16.01;100.00;100775.34;10419794;28;19939;-67
2023/08/03 20:45:41;;;;;;;;;;;;;;;16.11;100.00;100780.72;10419365;28;19925;-67
2023/08/03 20:50:46;;;;;;;;;;;;;;;16.19;100.00;100782.72;10418014;28;19925;-67
2023/08/03 20:55:52;;;;;;;;;;;;;;;16.19;100.00;100785.38;10418868;28;19931;-67
2023/08/03 21:00:54;;;;;;;;;;;;;;;16.10;100.00;100800.16;10417300;28;20368;-67
2023/08/03 21:05:56;;;;;;;;;;;;;;;16.10;100.00;100801.00;10418366;28;19929;-67
2023/08/03 21:10:58;;;;;;;;;;;;;;;16.05;100.00;100804.97;10418217;28;19925;-67
2023/08/03 21:16:11;;;;;;;;;;;;;;;16.03;100.00;100806.91;10418021;28;19932;-67
2023/08/03 21:21:14;;;;;;;;;;;;;;;15.99;100.00;100803.69;10417775;28;19925;-67
2023/08/03 21:26:16;;;;;;;;;;;;;;;16.02;100.00;100795.53;10419874;28;20339;-67
2023/08/03 21:31:19;;;;;;;;;;;;;;;16.04;100.00;100811.22;10458429;28;20375;-67
2023/08/03 21:36:21;;;;;;;;;;;;;;;16.07;100.00;100809.19;10440585;28;20287;-67
2023/08/03 21:41:23;;;;;;;;;;;;;;;15.90;100.00;100815.81;10458262;28;19924;-67
2023/08/03 21:46:25;;;;;;;;;;;;;;;16.02;100.00;100815.78;10457969;28;19931;-67
2023/08/03 21:51:28;;;;;;;;;;;;;;;15.92;100.00;100824.47;10440361;28;19928;-68
2023/08/03 21:56:30;;;;;;;;;;;;;;;15.72;100.00;100828.63;10457777;28;19935;-67
2023/08/03 22:01:32;;;;;;;;;;;;;;;15.94;100.00;100841.00;10457373;28;19924;-67
2023/08/03 22:06:35;;;;;;;;;;;;;;;15.94;100.00;100835.72;10457435;28;19925;-67
2023/08/03 22:11:37;;;;;;;;;;;;;;;16.05;100.00;100839.31;10423012;28;20294;-67
2023/08/03 22:16:39;;;;;;;;;;;;;;;15.78;100.00;100838.75;10456559;28;19982;-67
2023/08/03 22:21:42;;;;;;;;;;;;;;;15.75;100.00;100843.38;10457038;28;19932;-67
2023/08/03 22:26:45;;;;;;;;;;;;;;;15.52;100.00;100863.66;10456606;28;19925;-67
2023/08/03 22:31:47;;;;;;;;;;;;;;;15.77;100.00;100852.06;10439021;28;19947;-67
2023/08/03 22:36:50;;;;;;;;;;;;;;;15.84;100.00;100866.47;10456503;28;20383;-67
2023/08/03 22:41:52;;;;;;;;;;;;;;;15.65;100.00;100871.44;10456839;28;19925;-67
2023/08/03 22:46:54;;;;;;;;;;;;;;;15.37;100.00;100876.22;10439126;28;19931;-67
2023/08/03 22:51:56;;;;;;;;;;;;;;;15.71;100.00;100874.47;10456255;28;20276;-67
2023/08/03 22:56:59;;;;;;;;;;;;;;;15.67;100.00;100888.88;10456244;28;19925;-67
2023/08/03 23:02:01;;;;;;;;;;;;;;;15.67;100.00;100890.66;10438513;28;19960;-67
2023/08/03 23:07:03;;;;;;;;;;;;;;;15.58;100.00;100898.34;10438619;28;19932;-67
2023/08/03 23:12:06;;;;;;;;;;;;;;;15.61;100.00;100915.72;10455976;28;19931;-67
2023/08/03 23:17:08;;;;;;;;;;;;;;;15.67;100.00;100902.06;10455938;28;19925;-67
2023/08/03 23:22:10;;;;;;;;;;;;;;;15.72;100.00;100899.06;10455762;28;19929;-67
2023/08/03 23:27:13;;;;;;;;;;;;;;;15.59;100.00;100901.81;10440344;28;19925;-67
2023/08/03 23:32:15;;;;;;;;;;;;;;;15.25;100.00;100904.38;10445670;28;19966;-67
2023/08/03 23:37:18;;;;;;;;;;;;;;;15.41;100.00;100898.78;10462876;28;20398;-67
2023/08/03 23:42:20;;;;;;;;;;;;;;;15.32;100.00;100894.22;10462929;28;19925;-67
2023/08/03 23:47:22;;;;;;;;;;;;;;;15.33;100.00;100893.22;10462491;28;19925;-67
2023/08/03 23:52:24;;;;;;;;;;;;;;;15.31;100.00;100895.97;10462623;28;19939;-67
2023/08/03 23:57:26;;;;;;;;;;;;;;;15.19;100.00;100904.84;10462057;28;19932;-67
